createdAt,value
2023-01-12T00:00:48.004Z,8.41
2023-01-12T00:01:47.985Z,8.43
2023-01-12T00:02:47.988Z,8.38
2023-01-12T00:03:48.179Z,8.43
2023-01-12T00:04:47.962Z,8.41
2023-01-12T00:05:47.953Z,8.38
2023-01-12T00:06:47.946Z,8.41
2023-01-12T00:07:48.170Z,8.43
2023-01-12T00:08:47.976Z,8.44
2023-01-12T00:09:47.904Z,8.45
2023-01-12T00:10:48.107Z,8.50
2023-01-12T00:11:53.916Z,8.45
2023-01-12T00:12:48.086Z,8.44
2023-01-12T00:13:47.874Z,8.50
2023-01-12T00:14:47.863Z,8.48
2023-01-12T00:15:47.906Z,8.50
2023-01-12T00:16:47.855Z,8.50
2023-01-12T00:17:47.836Z,8.44
2023-01-12T00:18:47.819Z,8.44
2023-01-12T00:19:47.806Z,8.41
2023-01-12T00:20:47.902Z,8.38
2023-01-12T00:21:47.790Z,8.40
2023-01-12T00:22:47.796Z,8.35
2023-01-12T00:23:53.815Z,8.37
2023-01-12T00:24:47.763Z,8.38
2023-01-12T00:25:47.764Z,8.35
2023-01-12T00:26:47.751Z,8.35
2023-01-12T00:27:47.738Z,8.33
2023-01-12T00:28:47.728Z,8.32
2023-01-12T00:29:47.916Z,8.29
2023-01-12T00:30:47.703Z,8.32
2023-01-12T00:31:47.707Z,8.28
2023-01-12T00:32:47.681Z,8.35
2023-01-12T00:33:47.668Z,8.35
2023-01-12T00:34:47.674Z,8.37
2023-01-12T00:35:47.653Z,8.33
2023-01-12T00:36:47.839Z,8.32
2023-01-12T00:37:53.627Z,8.33
2023-01-12T00:38:47.620Z,8.28
2023-01-12T00:40:01.934Z,8.28
2023-01-12T00:40:54.657Z,8.35
2023-01-12T00:41:47.586Z,8.37
2023-01-12T00:42:47.776Z,8.37
2023-01-12T00:43:47.681Z,8.37
2023-01-12T00:44:47.570Z,8.37
2023-01-12T00:45:47.600Z,8.47
2023-01-12T00:46:47.563Z,8.45
2023-01-12T00:47:47.557Z,8.47
2023-01-12T00:48:47.528Z,8.48
2023-01-12T00:49:47.544Z,8.48
2023-01-12T00:50:47.517Z,8.55
2023-01-12T00:51:47.520Z,8.55
2023-01-12T00:52:49.499Z,8.53
2023-01-12T00:53:47.475Z,8.56
2023-01-12T00:54:47.526Z,8.56
2023-01-12T00:55:48.537Z,8.58
2023-01-12T00:56:47.442Z,8.58
2023-01-12T00:57:47.427Z,8.61
2023-01-12T00:58:47.405Z,8.63
2023-01-12T00:59:47.399Z,8.63
2023-01-12T01:00:47.388Z,8.65
2023-01-12T01:01:47.513Z,8.66
2023-01-12T01:02:47.465Z,8.65
2023-01-12T01:03:47.357Z,8.71
2023-01-12T01:04:47.345Z,8.73
2023-01-12T01:05:47.341Z,8.73
2023-01-12T01:06:47.327Z,8.65
2023-01-12T01:07:47.560Z,8.70
2023-01-12T01:09:28.120Z,8.71
2023-01-12T01:10:28.112Z,8.77
2023-01-12T01:11:28.166Z,8.71
2023-01-12T01:12:28.092Z,8.71
2023-01-12T01:13:28.089Z,8.73
2023-01-12T01:14:28.069Z,8.70
2023-01-12T01:15:28.059Z,8.66
2023-01-12T01:16:28.052Z,8.71
2023-01-12T01:17:28.127Z,8.68
2023-01-12T01:18:28.038Z,8.65
2023-01-12T01:19:28.216Z,8.66
2023-01-12T01:20:34.015Z,8.66
2023-01-12T01:21:28.013Z,8.65
2023-01-12T01:22:33.993Z,8.65
2023-01-12T01:23:27.982Z,8.68
2023-01-12T01:24:27.965Z,8.62
2023-01-12T01:25:27.958Z,8.63
2023-01-12T01:26:27.935Z,8.66
2023-01-12T01:27:27.967Z,8.65
2023-01-12T01:28:27.933Z,8.63
2023-01-12T01:29:27.915Z,8.66
2023-01-12T01:30:27.901Z,8.66
2023-01-12T01:31:28.204Z,8.66
2023-01-12T01:32:27.885Z,8.68
2023-01-12T01:33:27.872Z,8.68
2023-01-12T01:34:27.909Z,8.74
2023-01-12T01:35:27.842Z,8.74
2023-01-12T01:36:27.855Z,8.77
2023-01-12T01:37:27.840Z,8.76
2023-01-12T01:38:27.817Z,8.77
2023-01-12T01:39:27.840Z,8.77
2023-01-12T01:40:33.812Z,8.79
2023-01-12T01:41:27.996Z,8.77
2023-01-12T01:42:28.159Z,8.73
2023-01-12T01:43:27.801Z,8.71
2023-01-12T01:44:27.746Z,8.73
2023-01-12T01:45:27.755Z,8.77
2023-01-12T01:46:27.755Z,8.77
2023-01-12T01:47:27.731Z,8.74
2023-01-12T01:48:27.719Z,8.73
2023-01-12T01:49:27.694Z,8.76
2023-01-12T01:50:27.688Z,8.73
2023-01-12T01:51:27.686Z,8.70
2023-01-12T01:52:27.671Z,8.68
2023-01-12T01:53:27.679Z,8.63
2023-01-12T01:54:27.639Z,8.65
2023-01-12T01:55:27.634Z,8.61
2023-01-12T01:56:27.639Z,8.56
2023-01-12T01:57:27.706Z,8.58
2023-01-12T01:58:27.813Z,8.58
2023-01-12T01:59:27.633Z,8.56
2023-01-12T02:00:27.773Z,8.55
2023-01-12T02:01:27.744Z,8.55
2023-01-12T02:02:27.589Z,8.55
2023-01-12T02:03:36.574Z,8.52
2023-01-12T02:04:27.542Z,8.55
2023-01-12T02:05:27.534Z,8.56
2023-01-12T02:06:27.513Z,8.52
2023-01-12T02:07:27.514Z,8.52
2023-01-12T02:08:27.497Z,8.52
2023-01-12T02:09:27.549Z,8.48
2023-01-12T02:10:27.481Z,8.53
2023-01-12T02:11:27.468Z,8.52
2023-01-12T02:12:27.476Z,8.52
2023-01-12T02:13:27.452Z,8.50
2023-01-12T02:14:27.427Z,8.48
2023-01-12T02:15:27.646Z,8.53
2023-01-12T02:16:33.421Z,8.50
2023-01-12T02:17:27.419Z,8.50
2023-01-12T02:18:27.406Z,8.52
2023-01-12T02:19:27.389Z,8.47
2023-01-12T02:20:27.466Z,8.50
2023-01-12T02:21:27.760Z,8.50
2023-01-12T02:22:27.346Z,8.50
2023-01-12T02:23:27.326Z,8.50
2023-01-12T02:24:27.339Z,8.48
2023-01-12T02:25:27.310Z,8.52
2023-01-12T02:26:27.317Z,8.50
2023-01-12T02:27:27.297Z,8.52
2023-01-12T02:28:27.298Z,8.53
2023-01-12T02:29:33.274Z,8.50
2023-01-12T02:30:27.276Z,8.50
2023-01-12T02:31:27.565Z,8.50
2023-01-12T02:32:27.441Z,8.53
2023-01-12T02:33:27.234Z,8.56
2023-01-12T02:34:27.219Z,8.52
2023-01-12T02:35:27.206Z,8.55
2023-01-12T02:36:27.207Z,8.53
2023-01-12T02:37:27.179Z,8.53
2023-01-12T02:39:28.069Z,8.58
2023-01-12T02:40:28.084Z,8.55
2023-01-12T02:41:28.059Z,8.56
2023-01-12T02:42:28.043Z,8.58
2023-01-12T02:43:28.241Z,8.59
2023-01-12T02:44:28.030Z,8.59
2023-01-12T02:45:28.213Z,8.58
2023-01-12T02:46:28.062Z,8.59
2023-01-12T02:47:28.143Z,8.55
2023-01-12T02:48:27.982Z,8.56
2023-01-12T02:49:28.071Z,8.58
2023-01-12T02:50:27.974Z,8.59
2023-01-12T02:51:27.949Z,8.61
2023-01-12T02:52:27.935Z,8.59
2023-01-12T02:53:33.951Z,8.58
2023-01-12T02:54:33.936Z,8.59
2023-01-12T02:55:27.905Z,8.55
2023-01-12T02:56:27.917Z,8.53
2023-01-12T02:57:27.888Z,8.55
2023-01-12T02:58:27.882Z,8.59
2023-01-12T02:59:27.868Z,8.59
2023-01-12T03:00:27.908Z,8.58
2023-01-12T03:01:27.975Z,8.56
2023-01-12T03:02:27.847Z,8.53
2023-01-12T03:03:27.877Z,8.55
2023-01-12T03:04:27.817Z,8.55
2023-01-12T03:05:27.832Z,8.56
2023-01-12T03:06:27.809Z,8.55
2023-01-12T03:07:27.778Z,8.53
2023-01-12T03:08:27.777Z,8.52
2023-01-12T03:09:27.777Z,8.52
2023-01-12T03:10:27.753Z,8.53
2023-01-12T03:11:27.740Z,8.52
2023-01-12T03:12:27.738Z,8.50
2023-01-12T03:13:27.724Z,8.53
2023-01-12T03:14:27.715Z,8.44
2023-01-12T03:15:27.716Z,8.48
2023-01-12T03:16:27.736Z,8.52
2023-01-12T03:17:27.687Z,8.48
2023-01-12T03:18:27.673Z,8.48
2023-01-12T03:19:27.766Z,8.47
2023-01-12T03:20:27.638Z,8.48
2023-01-12T03:21:27.641Z,8.45
2023-01-12T03:22:27.630Z,8.44
2023-01-12T03:23:27.614Z,8.47
2023-01-12T03:24:27.603Z,8.45
2023-01-12T03:25:27.660Z,8.40
2023-01-12T03:26:27.610Z,8.44
2023-01-12T03:27:27.561Z,8.47
2023-01-12T03:28:27.764Z,8.45
2023-01-12T03:29:27.554Z,8.48
2023-01-12T03:30:27.554Z,8.48
2023-01-12T03:31:33.563Z,8.48
2023-01-12T03:32:27.518Z,8.52
2023-01-12T03:33:27.510Z,8.48
2023-01-12T03:34:27.499Z,8.52
2023-01-12T03:35:27.518Z,8.52
2023-01-12T03:36:27.473Z,8.56
2023-01-12T03:37:27.478Z,8.53
2023-01-12T03:38:27.464Z,8.53
2023-01-12T03:39:27.440Z,8.55
2023-01-12T03:40:27.649Z,8.55
2023-01-12T03:41:27.435Z,8.53
2023-01-12T03:42:27.426Z,8.56
2023-01-12T03:43:27.609Z,8.55
2023-01-12T03:44:27.391Z,8.61
2023-01-12T03:45:27.385Z,8.58
2023-01-12T03:46:27.469Z,8.59
2023-01-12T03:47:27.361Z,8.58
2023-01-12T03:48:27.443Z,8.61
2023-01-12T03:49:27.349Z,8.58
2023-01-12T03:50:27.337Z,8.63
2023-01-12T03:51:27.358Z,8.59
2023-01-12T03:52:27.304Z,8.61
2023-01-12T03:53:27.508Z,8.61
2023-01-12T03:54:27.289Z,8.63
2023-01-12T03:55:33.284Z,8.61
2023-01-12T03:56:27.256Z,8.61
2023-01-12T03:57:27.265Z,8.61
2023-01-12T03:58:27.254Z,8.59
2023-01-12T03:59:27.241Z,8.58
2023-01-12T04:00:27.245Z,8.58
2023-01-12T04:01:27.369Z,8.59
2023-01-12T04:02:27.210Z,8.50
2023-01-12T04:03:27.228Z,8.47
2023-01-12T04:04:27.183Z,8.50
2023-01-12T04:06:03.918Z,8.47
2023-01-12T04:07:03.943Z,8.44
2023-01-12T04:08:03.893Z,8.50
2023-01-12T04:09:03.905Z,8.50
2023-01-12T04:10:03.890Z,8.48
2023-01-12T04:11:03.875Z,8.52
2023-01-12T04:12:03.855Z,8.55
2023-01-12T04:13:36.882Z,8.55
2023-01-12T04:14:42.653Z,8.55
2023-01-12T04:15:36.637Z,8.55
2023-01-12T04:16:36.666Z,8.59
2023-01-12T04:17:42.624Z,8.58
2023-01-12T04:18:36.603Z,8.61
2023-01-12T04:19:36.636Z,8.53
2023-01-12T04:20:36.595Z,8.56
2023-01-12T04:21:42.587Z,8.62
2023-01-12T04:22:36.608Z,8.58
2023-01-12T04:23:36.601Z,8.58
2023-01-12T04:24:36.545Z,8.63
2023-01-12T04:25:36.545Z,8.61
2023-01-12T04:26:36.550Z,8.62
2023-01-12T04:27:36.519Z,8.61
2023-01-12T04:28:36.514Z,8.66
2023-01-12T04:29:42.507Z,8.63
2023-01-12T04:30:36.499Z,8.66
2023-01-12T04:31:36.496Z,8.70
2023-01-12T04:32:36.467Z,8.68
2023-01-12T04:33:36.456Z,8.68
2023-01-12T04:34:36.456Z,8.70
2023-01-12T04:35:36.526Z,8.70
2023-01-12T04:36:36.439Z,8.68
2023-01-12T04:37:36.418Z,8.73
2023-01-12T04:38:42.640Z,8.74
2023-01-12T04:39:36.392Z,8.73
2023-01-12T04:40:36.379Z,8.77
2023-01-12T04:41:36.466Z,8.74
2023-01-12T04:42:36.371Z,8.77
2023-01-12T04:43:36.552Z,8.76
2023-01-12T04:44:36.336Z,8.77
2023-01-12T04:45:36.568Z,8.76
2023-01-12T04:46:36.519Z,8.79
2023-01-12T04:47:36.308Z,8.79
2023-01-12T04:48:36.301Z,8.77
2023-01-12T04:49:36.285Z,8.77
2023-01-12T04:50:42.290Z,8.79
2023-01-12T04:51:36.279Z,8.79
2023-01-12T04:52:36.342Z,8.81
2023-01-12T04:53:36.328Z,8.80
2023-01-12T04:54:36.258Z,8.76
2023-01-12T04:55:36.226Z,8.79
2023-01-12T04:56:36.234Z,8.79
2023-01-12T04:57:36.215Z,8.80
2023-01-12T04:58:36.264Z,8.81
2023-01-12T04:59:36.181Z,8.80
2023-01-12T05:00:36.193Z,8.81
2023-01-12T05:01:36.237Z,8.86
2023-01-12T05:02:36.147Z,8.89
2023-01-12T05:03:36.141Z,8.91
2023-01-12T05:04:36.127Z,8.94
2023-01-12T05:05:36.135Z,8.86
2023-01-12T05:06:36.118Z,8.86
2023-01-12T05:07:36.100Z,8.84
2023-01-12T05:08:36.302Z,8.79
2023-01-12T05:09:36.089Z,8.81
2023-01-12T05:10:36.281Z,8.84
2023-01-12T05:11:42.068Z,8.84
2023-01-12T05:12:36.058Z,8.87
2023-01-12T05:13:36.037Z,8.89
2023-01-12T05:14:36.249Z,8.89
2023-01-12T05:15:36.019Z,8.86
2023-01-12T05:16:36.055Z,8.83
2023-01-12T05:17:36.009Z,8.89
2023-01-12T05:18:38.037Z,8.81
2023-01-12T05:19:35.974Z,8.83
2023-01-12T05:20:35.967Z,8.89
2023-01-12T05:21:35.963Z,8.92
2023-01-12T05:22:35.948Z,8.89
2023-01-12T05:23:35.931Z,8.92
2023-01-12T05:24:35.940Z,8.92
2023-01-12T05:25:35.936Z,8.89
2023-01-12T05:26:35.929Z,8.91
2023-01-12T05:27:35.896Z,8.96
2023-01-12T05:28:35.881Z,8.94
2023-01-12T05:29:35.872Z,8.96
2023-01-12T05:30:35.976Z,8.98
2023-01-12T05:31:35.843Z,9.02
2023-01-12T05:32:35.832Z,8.99
2023-01-12T05:33:35.823Z,8.98
2023-01-12T05:34:35.880Z,9.02
2023-01-12T05:35:35.798Z,9.09
2023-01-12T05:36:35.801Z,9.04
2023-01-12T05:37:35.800Z,9.04
2023-01-12T05:38:35.774Z,9.02
2023-01-12T05:39:35.769Z,9.05
2023-01-12T05:40:35.750Z,9.07
2023-01-12T05:41:35.740Z,9.07
2023-01-12T05:42:35.978Z,9.01
2023-01-12T05:43:35.716Z,9.05
2023-01-12T05:44:35.710Z,9.07
2023-01-12T05:45:36.019Z,9.02
2023-01-12T05:46:35.695Z,9.07
2023-01-12T05:47:35.683Z,9.10
2023-01-12T05:48:35.665Z,9.16
2023-01-12T05:49:35.670Z,9.12
2023-01-12T05:50:35.881Z,9.14
2023-01-12T05:51:35.639Z,9.14
2023-01-12T05:52:35.636Z,9.13
2023-01-12T05:53:35.617Z,9.09
2023-01-12T05:54:35.641Z,9.10
2023-01-12T05:55:35.592Z,9.10
2023-01-12T05:56:35.580Z,9.12
2023-01-12T05:57:35.566Z,9.13
2023-01-12T05:58:35.589Z,9.12
2023-01-12T05:59:35.549Z,9.13
2023-01-12T06:00:35.543Z,9.12
2023-01-12T06:01:41.537Z,9.07
2023-01-12T06:02:35.570Z,9.05
2023-01-12T06:03:41.712Z,9.05
2023-01-12T06:04:35.554Z,9.04
2023-01-12T06:05:41.497Z,9.05
2023-01-12T06:06:35.491Z,8.99
2023-01-12T06:07:35.467Z,8.98
2023-01-12T06:08:35.560Z,8.95
2023-01-12T06:09:35.545Z,8.95
2023-01-12T06:10:35.436Z,8.92
2023-01-12T06:12:20.253Z,8.91
2023-01-12T06:13:20.243Z,8.87
2023-01-12T06:14:20.259Z,8.87
2023-01-12T06:15:20.432Z,8.83
2023-01-12T06:16:20.448Z,8.83
2023-01-12T06:17:20.213Z,8.84
2023-01-12T06:18:22.255Z,8.86
2023-01-12T06:19:26.183Z,8.81
2023-01-12T06:21:00.928Z,8.81
2023-01-12T06:22:00.911Z,8.83
2023-01-12T06:23:01.120Z,8.83
2023-01-12T06:24:00.935Z,8.79
2023-01-12T06:25:00.898Z,8.80
2023-01-12T06:26:00.879Z,8.79
2023-01-12T06:27:00.871Z,8.81
2023-01-12T06:28:00.852Z,8.83
2023-01-12T06:29:00.841Z,8.79
2023-01-12T06:30:00.855Z,8.80
2023-01-12T06:31:00.923Z,8.83
2023-01-12T06:32:00.812Z,8.81
2023-01-12T06:33:00.792Z,8.86
2023-01-12T06:34:00.800Z,8.81
2023-01-12T06:35:07.037Z,8.89
2023-01-12T06:36:01.824Z,8.84
2023-01-12T06:37:00.751Z,8.87
2023-01-12T06:38:00.740Z,8.89
2023-01-12T06:39:00.732Z,8.87
2023-01-12T06:40:00.724Z,8.87
2023-01-12T06:41:00.708Z,8.86
2023-01-12T06:42:00.913Z,8.91
2023-01-12T06:43:00.691Z,8.89
2023-01-12T06:44:00.678Z,8.94
2023-01-12T06:45:00.691Z,8.99
2023-01-12T06:46:00.768Z,8.99
2023-01-12T06:47:00.656Z,8.99
2023-01-12T06:48:06.653Z,8.98
2023-01-12T06:49:00.625Z,8.96
2023-01-12T06:50:06.619Z,8.95
2023-01-12T06:51:06.624Z,8.95
2023-01-12T06:52:00.598Z,8.94
2023-01-12T06:53:00.591Z,8.92
2023-01-12T06:54:00.571Z,8.94
2023-01-12T06:55:00.560Z,8.98
2023-01-12T06:56:00.545Z,9.01
2023-01-12T06:57:00.540Z,8.95
2023-01-12T06:58:00.628Z,9.01
2023-01-12T06:59:00.519Z,8.96
2023-01-12T07:00:00.720Z,8.99
2023-01-12T07:01:37.415Z,9.01
2023-01-12T07:02:37.199Z,8.99
2023-01-12T07:03:37.182Z,9.04
2023-01-12T07:04:37.223Z,9.05
2023-01-12T07:05:37.149Z,9.09
2023-01-12T07:06:37.153Z,9.10
2023-01-12T07:07:39.891Z,9.05
2023-01-12T07:08:43.127Z,9.07
2023-01-12T07:09:43.335Z,9.10
2023-01-12T07:10:37.110Z,9.05
2023-01-12T07:11:37.093Z,9.10
2023-01-12T07:12:37.101Z,9.09
2023-01-12T07:13:37.087Z,9.09
2023-01-12T07:14:43.065Z,9.12
2023-01-12T07:15:37.138Z,9.09
2023-01-12T07:16:37.051Z,9.12
2023-01-12T07:17:37.075Z,9.12
2023-01-12T07:18:37.042Z,9.14
2023-01-12T07:19:37.011Z,9.19
2023-01-12T07:20:37.003Z,9.14
2023-01-12T07:21:38.989Z,9.16
2023-01-12T07:22:36.981Z,9.17
2023-01-12T07:23:42.972Z,9.19
2023-01-12T07:24:36.957Z,9.20
2023-01-12T07:25:36.945Z,9.20
2023-01-12T07:26:36.937Z,9.27
2023-01-12T07:27:36.933Z,9.25
2023-01-12T07:28:42.980Z,9.20
2023-01-12T07:29:36.902Z,9.25
2023-01-12T07:30:37.003Z,9.27
2023-01-12T07:31:37.084Z,9.28
2023-01-12T07:32:36.871Z,9.25
2023-01-12T07:33:43.111Z,9.28
2023-01-12T07:34:36.859Z,9.28
2023-01-12T07:35:37.044Z,9.27
2023-01-12T07:36:37.038Z,9.28
2023-01-12T07:37:36.833Z,9.34
2023-01-12T07:38:36.813Z,9.38
2023-01-12T07:39:36.804Z,9.38
2023-01-12T07:40:36.813Z,9.37
2023-01-12T07:41:36.780Z,9.35
2023-01-12T07:42:36.770Z,9.32
2023-01-12T07:43:36.958Z,9.34
2023-01-12T07:44:36.752Z,9.34
2023-01-12T07:45:36.737Z,9.37
2023-01-12T07:46:36.820Z,9.38
2023-01-12T07:47:36.819Z,9.42
2023-01-12T07:48:36.709Z,9.42
2023-01-12T07:49:43.133Z,9.42
2023-01-12T07:50:36.685Z,9.41
2023-01-12T07:51:36.678Z,9.46
2023-01-12T07:52:36.666Z,9.45
2023-01-12T07:53:36.656Z,9.47
2023-01-12T07:54:36.645Z,9.50
2023-01-12T07:55:36.634Z,9.49
2023-01-12T07:56:36.621Z,9.45
2023-01-12T07:57:36.713Z,9.50
2023-01-12T07:58:36.607Z,9.52
2023-01-12T07:59:36.598Z,9.53
2023-01-12T08:00:36.581Z,9.53
2023-01-12T08:01:36.803Z,9.56
2023-01-12T08:02:36.559Z,9.50
2023-01-12T08:03:36.750Z,9.52
2023-01-12T08:04:36.536Z,9.59
2023-01-12T08:05:36.826Z,9.59
2023-01-12T08:06:37.559Z,9.65
2023-01-12T08:07:36.508Z,9.71
2023-01-12T08:08:36.504Z,9.68
2023-01-12T08:09:36.488Z,9.68
2023-01-12T08:10:36.473Z,9.71
2023-01-12T08:11:36.684Z,9.71
2023-01-12T08:12:36.449Z,9.74
2023-01-12T08:13:36.445Z,9.75
2023-01-12T08:14:36.441Z,9.75
2023-01-12T08:15:36.425Z,9.83
2023-01-12T08:16:36.414Z,9.83
2023-01-12T08:17:36.412Z,9.89
2023-01-12T08:18:36.391Z,9.87
2023-01-12T08:19:36.385Z,9.91
2023-01-12T08:20:36.378Z,9.87
2023-01-12T08:21:36.387Z,9.91
2023-01-12T08:22:36.351Z,9.89
2023-01-12T08:23:36.348Z,9.87
2023-01-12T08:24:36.356Z,9.90
2023-01-12T08:25:36.329Z,9.96
2023-01-12T08:26:36.317Z,9.93
2023-01-12T08:27:36.298Z,9.91
2023-01-12T08:28:36.295Z,9.89
2023-01-12T08:29:36.382Z,9.91
2023-01-12T08:30:36.261Z,9.89
2023-01-12T08:31:36.262Z,9.94
2023-01-12T08:32:36.251Z,9.94
2023-01-12T08:33:36.235Z,9.94
2023-01-12T08:34:36.232Z,9.93
2023-01-12T08:35:42.223Z,9.94
2023-01-12T08:36:36.406Z,9.91
2023-01-12T08:37:36.216Z,9.93
2023-01-12T08:38:36.186Z,9.90
2023-01-12T08:39:36.172Z,9.89
2023-01-12T08:40:36.162Z,9.89
2023-01-12T08:42:26.391Z,9.90
2023-01-12T08:43:24.977Z,9.94
2023-01-12T08:44:24.964Z,9.99
2023-01-12T08:45:30.963Z,10.01
2023-01-12T08:46:24.985Z,10.01
2023-01-12T08:47:25.134Z,10.04
2023-01-12T08:48:26.978Z,10.02
2023-01-12T08:49:24.925Z,10.02
2023-01-12T08:50:24.937Z,10.04
2023-01-12T08:51:24.897Z,10.02
2023-01-12T08:52:24.890Z,10.09
2023-01-12T08:53:24.890Z,10.08
2023-01-12T08:54:24.884Z,10.07
2023-01-12T08:55:24.844Z,10.09
2023-01-12T08:56:24.835Z,10.08
2023-01-12T08:57:24.828Z,10.08
2023-01-12T08:58:24.819Z,10.07
2023-01-12T08:59:24.857Z,10.08
2023-01-12T09:00:24.808Z,10.09
2023-01-12T09:01:24.934Z,10.12
2023-01-12T09:02:24.821Z,10.14
2023-01-12T09:03:24.969Z,10.09
2023-01-12T09:04:24.961Z,10.17
2023-01-12T09:05:26.804Z,10.11
2023-01-12T09:06:24.733Z,10.14
2023-01-12T09:07:24.730Z,10.09
2023-01-12T09:08:24.720Z,10.14
2023-01-12T09:09:24.727Z,10.14
2023-01-12T09:10:24.692Z,10.12
2023-01-12T09:11:24.688Z,10.14
2023-01-12T09:12:24.666Z,10.15
2023-01-12T09:13:24.666Z,10.17
2023-01-12T09:14:24.649Z,10.15
2023-01-12T09:15:24.744Z,10.18
2023-01-12T09:16:24.647Z,10.18
2023-01-12T09:17:24.617Z,10.15
2023-01-12T09:18:24.632Z,10.17
2023-01-12T09:19:24.614Z,10.15
2023-01-12T09:20:24.699Z,10.22
2023-01-12T09:21:24.585Z,10.17
2023-01-12T09:22:24.569Z,10.25
2023-01-12T09:23:24.560Z,10.29
2023-01-12T09:24:24.549Z,10.32
2023-01-12T09:25:24.592Z,10.34
2023-01-12T09:26:24.926Z,10.34
2023-01-12T09:27:24.519Z,10.44
2023-01-12T09:28:24.506Z,10.38
2023-01-12T09:29:24.501Z,10.34
2023-01-12T09:30:24.492Z,10.30
2023-01-12T09:31:24.505Z,10.30
2023-01-12T09:32:29.093Z,10.30
2023-01-12T09:33:25.501Z,10.36
2023-01-12T09:34:24.444Z,10.40
2023-01-12T09:35:24.445Z,10.36
2023-01-12T09:36:24.416Z,10.32
2023-01-12T09:37:24.412Z,10.29
2023-01-12T09:38:24.400Z,10.27
2023-01-12T09:39:28.468Z,10.27
2023-01-12T09:40:24.581Z,10.27
2023-01-12T09:41:24.442Z,10.27
2023-01-12T09:42:24.363Z,10.26
2023-01-12T09:43:24.354Z,10.22
2023-01-12T09:44:24.336Z,10.22
2023-01-12T09:45:24.338Z,10.23
2023-01-12T09:46:24.316Z,10.22
2023-01-12T09:47:24.516Z,10.17
2023-01-12T09:48:24.512Z,10.25
2023-01-12T09:49:24.497Z,10.29
2023-01-12T09:50:24.285Z,10.27
2023-01-12T09:51:24.368Z,10.26
2023-01-12T09:52:24.263Z,10.32
2023-01-12T09:53:24.260Z,10.33
2023-01-12T09:54:24.234Z,10.36
2023-01-12T09:55:24.240Z,10.40
2023-01-12T09:56:24.426Z,10.42
2023-01-12T09:57:29.051Z,10.40
2023-01-12T09:58:30.268Z,10.41
2023-01-12T09:59:30.193Z,10.42
2023-01-12T10:00:24.248Z,10.40
2023-01-12T10:02:00.989Z,10.40
2023-01-12T10:03:00.960Z,10.42
2023-01-12T10:04:00.843Z,10.44
2023-01-12T10:05:00.846Z,10.44
2023-01-12T10:06:02.884Z,10.48
2023-01-12T10:07:00.823Z,10.45
2023-01-12T10:08:00.793Z,10.50
2023-01-12T10:09:00.800Z,10.52
2023-01-12T10:10:00.798Z,10.52
2023-01-12T10:11:00.789Z,10.54
2023-01-12T10:12:00.782Z,10.51
2023-01-12T10:13:00.777Z,10.50
2023-01-12T10:14:00.757Z,10.50
2023-01-12T10:15:00.731Z,10.48
2023-01-12T10:16:00.724Z,10.44
2023-01-12T10:17:00.696Z,10.44
2023-01-12T10:18:00.701Z,10.44
2023-01-12T10:19:00.778Z,10.44
2023-01-12T10:20:06.707Z,10.45
2023-01-12T10:21:00.665Z,10.42
2023-01-12T10:22:00.655Z,10.44
2023-01-12T10:23:00.642Z,10.41
2023-01-12T10:24:00.631Z,10.42
2023-01-12T10:25:00.622Z,10.40
2023-01-12T10:26:00.609Z,10.40
2023-01-12T10:27:00.614Z,10.38
2023-01-12T10:28:00.592Z,10.41
2023-01-12T10:29:00.594Z,10.41
2023-01-12T10:30:00.579Z,10.38
2023-01-12T10:31:00.762Z,10.42
2023-01-12T10:32:00.675Z,10.48
2023-01-12T10:33:00.742Z,10.48
2023-01-12T10:34:00.518Z,10.47
2023-01-12T10:35:00.511Z,10.48
2023-01-12T10:36:06.519Z,10.47
2023-01-12T10:37:06.491Z,10.45
2023-01-12T10:38:00.477Z,10.45
2023-01-12T10:39:00.467Z,10.48
2023-01-12T10:40:00.489Z,10.50
2023-01-12T10:41:06.455Z,10.50
2023-01-12T10:42:00.431Z,10.50
2023-01-12T10:43:02.320Z,10.48
2023-01-12T10:44:00.412Z,10.51
2023-01-12T10:45:00.431Z,10.42
2023-01-12T10:46:00.621Z,10.45
2023-01-12T10:47:00.376Z,10.45
2023-01-12T10:48:00.375Z,10.47
2023-01-12T10:49:41.133Z,10.50
2023-01-12T10:50:41.305Z,10.45
2023-01-12T10:51:41.091Z,10.45
2023-01-12T10:52:41.081Z,10.47
2023-01-12T10:53:41.073Z,10.44
2023-01-12T10:54:41.279Z,10.40
2023-01-12T10:55:41.067Z,10.44
2023-01-12T10:56:41.048Z,10.41
2023-01-12T10:57:41.248Z,10.45
2023-01-12T10:58:41.027Z,10.44
2023-01-12T10:59:47.017Z,10.42
2023-01-12T11:00:47.072Z,10.44
2023-01-12T11:01:41.134Z,10.44
2023-01-12T11:02:41.235Z,10.45
2023-01-12T11:03:40.964Z,10.42
2023-01-12T11:04:40.956Z,10.48
2023-01-12T11:05:40.943Z,10.48
2023-01-12T11:06:40.927Z,10.47
2023-01-12T11:07:40.919Z,10.52
2023-01-12T11:08:40.916Z,10.52
2023-01-12T11:09:41.113Z,10.55
2023-01-12T11:10:41.205Z,10.54
2023-01-12T11:11:40.882Z,10.55
2023-01-12T11:12:40.890Z,10.58
2023-01-12T12:02:21.099Z,10.83
2023-01-12T12:03:21.165Z,10.81
2023-01-12T12:04:21.177Z,10.77
2023-01-12T12:05:21.042Z,10.77
2023-01-12T12:06:21.034Z,10.73
2023-01-12T12:07:27.041Z,10.73
2023-01-12T12:08:21.020Z,10.72
2023-01-12T12:09:21.018Z,10.66
2023-01-12T12:10:21.098Z,10.67
2023-01-12T12:11:20.982Z,10.65
2023-01-12T12:12:20.971Z,10.67
2023-01-12T12:13:20.953Z,10.66
2023-01-12T12:14:21.208Z,10.66
2023-01-12T12:15:20.944Z,10.66
2023-01-12T12:16:20.941Z,10.70
2023-01-12T12:17:20.929Z,10.75
2023-01-12T12:18:26.925Z,10.75
2023-01-12T12:19:21.012Z,10.78
2023-01-12T12:20:20.918Z,10.81
2023-01-12T12:21:20.881Z,10.80
2023-01-12T12:22:20.877Z,10.77
2023-01-12T12:23:20.849Z,10.77
2023-01-12T12:24:20.861Z,10.77
2023-01-12T12:25:21.104Z,10.73
2023-01-12T12:26:20.823Z,10.83
2023-01-12T12:27:20.825Z,10.83
2023-01-12T12:28:20.808Z,10.78
2023-01-12T12:29:20.904Z,10.77
2023-01-12T12:30:20.783Z,10.75
2023-01-12T12:31:20.870Z,10.75
2023-01-12T12:32:20.972Z,10.72
2023-01-12T12:33:20.756Z,10.75
2023-01-12T12:34:20.742Z,10.80
2023-01-12T12:35:20.782Z,10.84
2023-01-12T12:36:20.937Z,10.85
2023-01-12T12:37:20.728Z,10.83
2023-01-12T12:38:20.718Z,10.88
2023-01-12T12:39:20.690Z,10.84
2023-01-12T12:40:20.679Z,10.85
2023-01-12T12:41:20.884Z,10.88
2023-01-12T12:42:20.650Z,10.93
2023-01-12T12:43:20.661Z,10.93
2023-01-12T12:44:20.650Z,10.90
2023-01-12T12:45:20.633Z,10.99
2023-01-12T12:46:20.712Z,10.95
2023-01-12T12:47:20.616Z,11.05
2023-01-12T12:48:20.595Z,11.06
2023-01-12T12:49:20.585Z,11.05
2023-01-12T12:50:20.569Z,11.13
2023-01-12T12:51:20.587Z,11.10
2023-01-12T12:52:20.592Z,11.22
2023-01-12T12:53:26.563Z,11.27
2023-01-12T12:54:20.744Z,11.29
2023-01-12T12:55:21.592Z,11.33
2023-01-12T12:56:20.570Z,11.46
2023-01-12T12:57:20.518Z,11.44
2023-01-12T12:58:20.501Z,11.46
2023-01-12T12:59:20.489Z,11.44
2023-01-12T13:00:20.646Z,11.44
2023-01-12T13:01:20.713Z,11.46
2023-01-12T13:02:20.623Z,11.52
2023-01-12T13:03:20.448Z,11.47
2023-01-12T13:04:20.432Z,11.52
2023-01-12T13:06:20.404Z,11.52
2023-01-12T13:07:20.616Z,11.47
2023-01-12T13:08:20.828Z,11.58
2023-01-12T13:09:20.377Z,11.61
2023-01-12T13:10:20.781Z,11.58
2023-01-12T13:11:20.350Z,11.51
2023-01-12T13:12:20.346Z,11.55
2023-01-12T13:13:20.341Z,11.46
2023-01-12T13:14:20.325Z,11.44
2023-01-12T13:15:20.386Z,11.47
2023-01-12T13:16:20.451Z,11.43
2023-01-12T13:17:26.315Z,11.49
2023-01-12T13:18:20.288Z,11.47
2023-01-12T13:19:20.277Z,11.49
2023-01-12T13:20:25.336Z,11.51
2023-01-12T13:21:20.253Z,11.49
2023-01-12T13:22:20.254Z,11.49
2023-01-12T13:23:20.238Z,11.46
2023-01-12T13:24:26.253Z,11.42
2023-01-12T13:25:20.240Z,11.37
2023-01-12T13:26:20.664Z,11.36
2023-01-12T13:27:20.192Z,11.32
2023-01-12T13:28:20.178Z,11.24
2023-01-12T13:29:20.176Z,11.14
2023-01-12T13:30:20.232Z,11.13
2023-01-12T13:31:20.252Z,11.03
2023-01-12T13:32:20.142Z,11.01
2023-01-12T13:33:20.146Z,10.96
2023-01-12T13:34:20.115Z,10.93
2023-01-12T13:35:20.111Z,10.88
2023-01-12T13:36:20.219Z,10.88
2023-01-12T13:37:20.086Z,10.83
2023-01-12T13:38:20.071Z,10.84
2023-01-12T13:39:20.057Z,10.83
2023-01-12T13:40:20.076Z,10.75
2023-01-12T13:41:20.037Z,10.78
2023-01-12T13:42:26.032Z,10.80
2023-01-12T13:43:20.014Z,10.80
2023-01-12T13:44:26.021Z,10.81
2023-01-12T13:46:08.950Z,10.73
2023-01-12T13:47:08.882Z,10.72
2023-01-12T13:48:08.878Z,10.72
2023-01-12T13:49:09.055Z,10.77
2023-01-12T13:50:08.838Z,10.70
2023-01-12T13:51:53.553Z,10.72
2023-01-12T13:52:53.530Z,10.66
2023-01-12T13:53:53.527Z,10.65
2023-01-12T13:54:53.513Z,10.65
2023-01-12T13:55:53.526Z,10.63
2023-01-12T13:56:53.495Z,10.59
2023-01-12T13:57:53.483Z,10.59
2023-01-12T13:58:53.478Z,10.62
2023-01-12T13:59:53.459Z,10.65
2023-01-12T14:00:53.482Z,10.60
2023-01-12T14:02:53.485Z,10.60
2023-01-12T14:03:53.421Z,10.60
2023-01-12T14:04:53.458Z,10.60
2023-01-12T14:05:53.385Z,10.60
2023-01-12T14:06:53.387Z,10.55
2023-01-12T14:07:53.383Z,10.54
2023-01-12T14:08:53.569Z,10.54